Time;durP1;ratioP1;P1;durP2;ratioP2;P2;SDS_P1;SDS_P2;PMS_P1;PMS_P2;Temp;Humidity;BMP_temperature;BMP_pressure;BME280_temperature;BME280_humidity;BME280_pressure;Samples;Min_cycle;Max_cycle;Signal;HPM_P1;HPM_P2
2023/01/24 00:00:01;;;;;;;18.50;8.83;;;;;2.70;97635.00;;;;8364375;28;20195;-92
2023/01/24 00:04:08;;;;;;;23.07;10.77;;;;;2.70;97638.00;;;;8363480;28;20223;-92
2023/01/24 00:08:15;;;;;;;26.23;11.03;;;;;2.70;97643.00;;;;8364375;28;20195;-92
2023/01/24 00:12:18;;;;;;;18.47;7.77;;;;;2.70;97640.00;;;;8364520;28;20193;-92
2023/01/24 00:16:23;;;;;;;25.10;9.97;;;;;2.70;97630.00;;;;8364446;28;20671;-92
2023/01/24 00:20:31;;;;;;;23.17;9.67;;;;;2.70;97651.00;;;;8364495;28;20200;-92
2023/01/24 00:24:34;;;;;;;25.17;11.13;;;;;2.70;97641.00;;;;8364709;28;20199;-91
2023/01/24 00:28:37;;;;;;;20.97;10.07;;;;;2.70;97643.00;;;;8363850;28;20201;-91
2023/01/24 00:32:41;;;;;;;20.33;11.17;;;;;2.70;97636.00;;;;8365648;28;20658;-91
2023/01/24 00:36:45;;;;;;;15.27;8.33;;;;;2.70;97630.00;;;;8363730;28;20216;-91
2023/01/24 00:40:49;;;;;;;21.27;10.00;;;;;2.70;97630.00;;;;8364200;28;20246;-92
2023/01/24 00:44:54;;;;;;;15.77;8.13;;;;;2.70;97614.00;;;;8364595;28;20190;-92
2023/01/24 00:48:59;;;;;;;20.43;7.87;;;;;2.70;97610.00;;;;8363832;28;20195;-92
2023/01/24 00:53:06;;;;;;;17.17;8.87;;;;;2.70;97600.00;;;;8363936;28;20231;-91
2023/01/24 00:57:09;;;;;;;16.53;8.50;;;;;2.60;97611.00;;;;8367248;28;20225;-93
2023/01/24 01:01:12;;;;;;;15.73;8.33;;;;;2.70;97621.00;;;;8370419;28;20218;-93
2023/01/24 01:05:16;;;;;;;14.57;7.30;;;;;2.60;97611.00;;;;8368997;28;20231;-93
2023/01/24 01:09:20;;;;;;;15.17;7.43;;;;;2.70;97618.00;;;;8370201;28;20769;-93
2023/01/24 01:13:23;;;;;;;13.93;6.37;;;;;2.70;97626.00;;;;8369871;28;20205;-93
2023/01/24 01:17:28;;;;;;;19.60;9.53;;;;;2.70;97648.00;;;;8367070;28;20711;-93
2023/01/24 01:21:34;;;;;;;14.87;6.93;;;;;2.70;97650.00;;;;8352673;28;20204;-93
2023/01/24 01:25:40;;;;;;;11.73;6.00;;;;;2.70;97657.00;;;;8368611;28;20253;-93
2023/01/24 01:29:43;;;;;;;13.23;6.67;;;;;2.80;97667.00;;;;8369128;28;20198;-92
2023/01/24 01:33:46;;;;;;;16.80;8.03;;;;;2.80;97664.00;;;;8368389;28;20196;-91
2023/01/24 01:37:52;;;;;;;15.07;7.17;;;;;2.80;97659.00;;;;8369304;28;20226;-92
2023/01/24 01:41:57;;;;;;;15.53;7.80;;;;;2.80;97654.00;;;;8369175;28;20195;-92
2023/01/24 01:46:17;;;;;;;13.63;7.37;;;;;2.80;97654.00;;;;8369792;28;20536;-94
2023/01/24 01:50:31;;;;;;;12.77;6.70;;;;;2.80;97658.00;;;;8367828;28;20200;-93
2023/01/24 01:54:38;;;;;;;12.63;7.77;;;;;2.80;97651.00;;;;8351201;28;20588;-92
2023/01/24 01:58:43;;;;;;;13.57;6.40;;;;;2.80;97660.00;;;;8367407;28;20225;-91
2023/01/24 02:02:49;;;;;;;14.93;6.90;;;;;2.80;97651.00;;;;8366694;28;20539;-94
2023/01/24 02:06:55;;;;;;;13.03;6.43;;;;;2.80;97664.00;;;;8368505;28;20189;-93
2023/01/24 02:19:59;;;;;;;11.73;5.63;;;;;2.80;97665.00;;;;8367040;28;20286;-94
2023/01/24 02:24:08;;;;;;;13.53;6.60;;;;;2.80;97673.00;;;;8366865;28;20196;-93
2023/01/24 02:28:13;;;;;;;9.03;5.47;;;;;2.90;97670.00;;;;8367286;28;20184;-93
2023/01/24 02:32:18;;;;;;;11.97;6.07;;;;;2.80;97663.00;;;;8366423;28;20195;-93
2023/01/24 02:36:25;;;;;;;9.73;5.57;;;;;2.90;97669.00;;;;8367253;28;20207;-92
2023/01/24 02:40:33;;;;;;;13.20;5.50;;;;;2.90;97661.00;;;;8369099;28;20595;-93
2023/01/24 02:44:45;;;;;;;13.63;6.23;;;;;2.90;97666.00;;;;8366628;28;20176;-92
2023/01/24 02:48:52;;;;;;;10.00;6.07;;;;;2.90;97660.00;;;;8367426;28;20648;-91
2023/01/24 03:01:41;;;;;;;11.07;5.77;;;;;2.90;97657.00;;;;8377988;23;20232;-88
2023/01/24 03:05:56;;;;;;;11.00;6.10;;;;;2.90;97652.00;;;;8266824;28;20209;-92
2023/01/24 03:09:59;;;;;;;12.43;6.30;;;;;2.90;97642.00;;;;8275089;28;20641;-91
2023/01/24 03:35:56;;;;;;;9.93;5.80;;;;;2.50;97647.00;;;;8279357;28;20251;-91
2023/01/24 03:39:59;;;;;;;13.87;5.97;;;;;2.50;97653.00;;;;8272590;28;20714;-90
2023/01/24 03:44:04;;;;;;;8.53;5.00;;;;;2.50;97670.00;;;;8277515;28;20218;-91
2023/01/24 03:48:13;;;;;;;14.67;6.63;;;;;2.50;97668.00;;;;8268775;28;20213;-90
2023/01/24 03:52:26;;;;;;;7.43;4.77;;;;;2.50;97675.00;;;;8272254;28;20610;-90
2023/01/24 03:56:32;;;;;;;13.70;6.00;;;;;2.60;97666.00;;;;8270236;28;20260;-90
2023/01/24 04:00:38;;;;;;;5.40;3.87;;;;;2.70;97674.00;;;;8276621;28;20229;-90
2023/01/24 04:09:06;;;;;;;7.57;5.03;;;;;2.70;97662.00;;;;8285000;28;20217;-90
2023/01/24 04:13:10;;;;;;;10.37;5.00;;;;;2.70;97672.00;;;;8280219;28;20204;-90
2023/01/24 04:17:15;;;;;;;12.40;7.00;;;;;2.70;97666.00;;;;8281234;28;20209;-89
2023/01/24 04:21:25;;;;;;;9.40;5.83;;;;;2.80;97670.00;;;;8282229;28;20662;-90
2023/01/24 04:25:30;;;;;;;13.00;6.80;;;;;2.70;97659.00;;;;8279431;28;20798;-90
2023/01/24 04:29:33;;;;;;;13.83;6.33;;;;;2.70;97658.00;;;;8281436;28;20713;-90
2023/01/24 04:33:36;;;;;;;9.27;5.13;;;;;2.70;97662.00;;;;8289299;28;20287;-91
2023/01/24 04:37:40;;;;;;;8.37;4.83;;;;;2.70;97662.00;;;;8288656;28;20733;-90
2023/01/24 04:41:47;;;;;;;10.53;6.20;;;;;2.60;97667.00;;;;8294858;28;20214;-88
2023/01/24 04:45:50;;;;;;;8.80;5.70;;;;;2.60;97664.00;;;;8289181;28;20251;-90
2023/01/24 04:49:58;;;;;;;12.63;5.63;;;;;2.60;97659.00;;;;8286464;28;20201;-88
2023/01/24 04:54:02;;;;;;;8.83;4.93;;;;;2.60;97662.00;;;;8286596;28;20871;-88
2023/01/24 04:58:06;;;;;;;9.63;5.23;;;;;2.60;97664.00;;;;8286425;28;20227;-87
2023/01/24 05:02:10;;;;;;;11.50;6.47;;;;;2.60;97663.00;;;;8293942;28;20235;-86
2023/01/24 05:06:16;;;;;;;10.17;5.53;;;;;2.50;97666.00;;;;8292738;28;20196;-89
2023/01/24 05:10:21;;;;;;;9.97;5.83;;;;;2.60;97665.00;;;;8291149;28;20206;-85
2023/01/24 05:14:25;;;;;;;10.73;6.57;;;;;2.60;97663.00;;;;8283615;28;20203;-86
2023/01/24 05:18:28;;;;;;;14.17;6.00;;;;;2.60;97674.00;;;;8287798;28;20235;-85
2023/01/24 05:22:31;;;;;;;10.27;5.67;;;;;2.70;97680.00;;;;8285489;28;20252;-85
2023/01/24 05:26:37;;;;;;;11.03;6.17;;;;;2.70;97681.00;;;;8283276;28;20259;-81
2023/01/24 05:30:44;;;;;;;13.73;7.20;;;;;2.70;97688.00;;;;8290880;28;20299;-86
2023/01/24 05:34:47;;;;;;;11.67;6.27;;;;;2.70;97693.00;;;;8286813;28;20213;-84
2023/01/24 05:38:51;;;;;;;7.93;4.80;;;;;2.70;97699.00;;;;8287011;28;20270;-86
2023/01/24 05:42:57;;;;;;;13.07;6.73;;;;;2.70;97698.00;;;;8283479;28;20202;-83
2023/01/24 05:47:18;;;;;;;10.67;6.10;;;;;2.80;97708.00;;;;8292054;28;20285;-86
2023/01/24 05:51:21;;;;;;;11.60;6.43;;;;;2.80;97709.00;;;;8279225;28;20205;-86
2023/01/24 05:55:25;;;;;;;9.80;5.67;;;;;2.80;97705.00;;;;8279508;28;20197;-84
2023/01/24 05:59:30;;;;;;;7.97;5.03;;;;;2.80;97704.00;;;;8287951;28;20591;-84
2023/01/24 06:03:39;;;;;;;10.57;6.07;;;;;2.90;97711.00;;;;8285434;28;20254;-85
2023/01/24 06:07:42;;;;;;;10.20;5.87;;;;;2.90;97709.00;;;;8286767;28;20774;-84
2023/01/24 06:11:45;;;;;;;10.20;5.37;;;;;2.90;97704.00;;;;8285984;28;20713;-81
2023/01/24 06:15:50;;;;;;;9.57;5.20;;;;;2.90;97703.00;;;;8285968;28;20208;-83
2023/01/24 06:19:59;;;;;;;10.93;6.33;;;;;3.00;97709.00;;;;8282041;28;20231;-85
2023/01/24 06:24:04;;;;;;;9.43;5.40;;;;;3.00;97705.00;;;;8283829;28;20243;-85
2023/01/24 06:28:12;;;;;;;9.60;6.17;;;;;3.00;97717.00;;;;8291656;28;20203;-82
2023/01/24 06:32:31;;;;;;;10.33;6.33;;;;;3.00;97720.00;;;;8301659;28;20284;-82
2023/01/24 06:36:47;;;;;;;12.03;5.80;;;;;3.00;97732.00;;;;8301691;28;20528;-82
2023/01/24 06:40:56;;;;;;;8.10;5.17;;;;;3.00;97730.00;;;;8301656;28;20667;-82
2023/01/24 06:44:59;;;;;;;9.20;5.60;;;;;3.00;97740.00;;;;8301158;28;20562;-83
2023/01/24 06:49:04;;;;;;;10.30;5.90;;;;;3.00;97743.00;;;;8300279;28;20196;-83
2023/01/24 06:53:09;;;;;;;10.27;6.27;;;;;3.00;97739.00;;;;8299255;28;20198;-83
2023/01/24 06:57:15;;;;;;;10.87;5.67;;;;;3.00;97749.00;;;;8301510;28;20262;-83
2023/01/24 07:01:18;;;;;;;9.07;4.97;;;;;3.00;97747.00;;;;8299779;28;20277;-83
2023/01/24 07:05:21;;;;;;;9.73;5.57;;;;;3.00;97755.00;;;;8300884;28;20712;-83
2023/01/24 07:09:26;;;;;;;10.87;5.70;;;;;3.00;97762.00;;;;8300770;28;20267;-83
2023/01/24 07:13:29;;;;;;;9.90;6.07;;;;;3.00;97767.00;;;;8299631;28;20367;-83
2023/01/24 07:17:33;;;;;;;10.43;6.70;;;;;3.10;97775.00;;;;8300192;28;20211;-83
2023/01/24 07:21:41;;;;;;;9.77;5.57;;;;;3.10;97773.00;;;;8298886;28;20225;-84
2023/01/24 07:25:48;;;;;;;10.73;6.43;;;;;3.10;97790.00;;;;8299083;28;20754;-84
2023/01/24 07:29:51;;;;;;;11.37;6.80;;;;;3.10;97779.00;;;;8299315;28;20194;-84
2023/01/24 07:33:54;;;;;;;11.30;6.13;;;;;3.10;97776.00;;;;8299849;28;20645;-85
2023/01/24 07:37:59;;;;;;;11.70;6.53;;;;;3.10;97783.00;;;;8299349;28;20232;-86
2023/01/24 07:42:06;;;;;;;14.63;6.60;;;;;3.10;97793.00;;;;8298701;28;20225;-86
2023/01/24 07:46:11;;;;;;;13.40;6.37;;;;;3.10;97797.00;;;;8298401;28;20207;-86
2023/01/24 07:50:16;;;;;;;13.20;7.70;;;;;3.20;97795.00;;;;8298696;28;20259;-87
2023/01/24 07:54:22;;;;;;;15.63;7.53;;;;;3.20;97801.00;;;;8298397;28;20197;-87
2023/01/24 07:58:26;;;;;;;15.70;7.53;;;;;3.20;97809.00;;;;8298717;28;20204;-86
2023/01/24 08:02:30;;;;;;;9.97;6.07;;;;;3.30;97800.00;;;;8298367;28;20239;-79
2023/01/24 08:06:36;;;;;;;13.73;6.90;;;;;3.30;97805.00;;;;8298687;28;20535;-80
2023/01/24 08:10:39;;;;;;;15.90;8.43;;;;;3.30;97823.00;;;;8298196;28;20204;-80
2023/01/24 08:14:45;;;;;;;14.13;8.10;;;;;3.30;97822.00;;;;8299713;28;20535;-80
2023/01/24 08:18:50;;;;;;;12.33;7.53;;;;;3.30;97828.00;;;;8298391;28;20230;-81
2023/01/24 08:22:56;;;;;;;17.63;8.23;;;;;3.30;97837.00;;;;8299287;28;20516;-80
2023/01/24 08:27:05;;;;;;;14.00;6.63;;;;;3.40;97831.00;;;;8297990;28;20593;-81
2023/01/24 08:31:09;;;;;;;15.50;7.33;;;;;3.40;97828.00;;;;8297656;28;20566;-80
2023/01/24 08:35:13;;;;;;;12.67;7.37;;;;;3.40;97828.00;;;;8298684;28;20193;-82
2023/01/24 08:39:16;;;;;;;12.40;6.70;;;;;3.50;97826.00;;;;8298141;28;20225;-84
2023/01/24 08:43:30;;;;;;;15.27;7.70;;;;;3.50;97839.00;;;;8297110;28;20189;-81
2023/01/24 08:47:35;;;;;;;16.10;7.73;;;;;3.60;97843.00;;;;8296774;28;20196;-89
2023/01/24 08:51:38;;;;;;;12.33;6.80;;;;;3.60;97834.00;;;;8295275;28;20267;-88
2023/01/24 08:55:41;;;;;;;11.53;6.13;;;;;3.70;97835.00;;;;8297785;28;20591;-86
2023/01/24 08:59:46;;;;;;;9.33;5.73;;;;;3.70;97860.00;;;;8297636;28;20609;-89
2023/01/24 09:03:51;;;;;;;13.07;7.47;;;;;3.70;97854.00;;;;8298313;28;20319;-88
2023/01/24 09:07:55;;;;;;;13.37;7.27;;;;;3.70;97844.00;;;;8298510;28;20625;-88
2023/01/24 09:11:58;;;;;;;13.53;7.13;;;;;3.80;97864.00;;;;8297347;28;20266;-86
2023/01/24 09:16:04;;;;;;;14.40;7.43;;;;;3.80;97870.00;;;;8297877;28;20201;-87
2023/01/24 09:20:11;;;;;;;12.77;7.27;;;;;3.90;97871.00;;;;8302999;28;20258;-86
2023/01/24 09:24:15;;;;;;;15.70;8.17;;;;;3.90;97876.00;;;;8303143;28;20287;-86
2023/01/24 09:28:19;;;;;;;13.30;7.87;;;;;3.90;97880.00;;;;8304230;28;20647;-85
2023/01/24 09:32:25;;;;;;;12.73;7.57;;;;;3.90;97885.00;;;;8302868;28;20196;-81
2023/01/24 09:36:33;;;;;;;13.00;7.20;;;;;3.90;97885.00;;;;8302847;28;20240;-83
2023/01/24 09:40:44;;;;;;;16.07;6.97;;;;;4.00;97895.00;;;;8303844;28;20647;-83
2023/01/24 09:44:55;;;;;;;14.00;7.10;;;;;4.00;97884.00;;;;8302523;28;20186;-82
2023/01/24 09:49:10;;;;;;;16.87;8.57;;;;;3.90;97880.00;;;;8303162;28;20625;-81
2023/01/24 09:53:20;;;;;;;15.03;8.37;;;;;4.00;97878.00;;;;8302359;28;20288;-81
2023/01/24 09:57:32;;;;;;;16.07;8.57;;;;;4.00;97882.00;;;;8302180;28;20215;-80
2023/01/24 10:01:38;;;;;;;17.13;9.20;;;;;4.00;97874.00;;;;8302041;28;20228;-78
2023/01/24 10:05:51;;;;;;;18.37;9.67;;;;;4.00;97872.00;;;;8302471;28;20202;-80
2023/01/24 10:10:16;;;;;;;15.70;8.60;;;;;4.00;97864.00;;;;8301260;28;20242;-76
2023/01/24 10:14:37;;;;;;;18.30;9.40;;;;;4.10;97862.00;;;;8300896;28;20209;-75
2023/01/24 10:18:53;;;;;;;15.10;7.70;;;;;4.00;97869.00;;;;8301096;28;20678;-76
2023/01/24 10:23:06;;;;;;;14.73;8.57;;;;;4.00;97872.00;;;;8301282;28;20654;-75
2023/01/24 10:27:19;;;;;;;13.97;6.73;;;;;4.00;97866.00;;;;8298754;28;20205;-75
2023/01/24 10:31:31;;;;;;;17.97;9.53;;;;;4.00;97860.00;;;;8300753;28;20646;-75
2023/01/24 10:35:50;;;;;;;20.77;10.17;;;;;4.10;97866.00;;;;8301752;28;20531;-76
2023/01/24 10:39:56;;;;;;;18.83;9.17;;;;;4.20;97860.00;;;;8300452;28;20229;-77
2023/01/24 10:44:04;;;;;;;19.63;9.53;;;;;4.30;97854.00;;;;8300862;28;20197;-76
2023/01/24 10:48:19;;;;;;;20.53;10.63;;;;;4.70;97845.00;;;;8301129;28;20186;-75
2023/01/24 10:52:23;;;;;;;15.27;8.10;;;;;4.80;97835.00;;;;8300663;28;20198;-76
2023/01/24 10:56:29;;;;;;;14.57;7.80;;;;;4.70;97841.00;;;;8300332;28;20205;-76
2023/01/24 11:00:36;;;;;;;19.93;10.50;;;;;4.70;97844.00;;;;8300638;28;20225;-75
2023/01/24 11:04:39;;;;;;;17.47;8.87;;;;;4.80;97832.00;;;;8300609;28;20271;-76
2023/01/24 11:08:43;;;;;;;16.07;8.30;;;;;4.90;97838.00;;;;8300395;28;20192;-76
2023/01/24 11:12:59;;;;;;;16.03;8.33;;;;;4.60;97840.00;;;;8300138;28;20197;-76
2023/01/24 11:17:07;;;;;;;11.27;6.87;;;;;4.50;97830.00;;;;8300195;28;20246;-76
2023/01/24 11:21:16;;;;;;;21.83;11.53;;;;;4.40;97835.00;;;;8300313;28;20219;-76
2023/01/24 11:25:19;;;;;;;13.80;8.00;;;;;4.40;97826.00;;;;8299466;28;20295;-77
2023/01/24 11:29:25;;;;;;;16.30;8.80;;;;;4.50;97819.00;;;;8299169;28;20192;-78
2023/01/24 11:33:50;;;;;;;13.17;8.30;;;;;4.50;97813.00;;;;8299622;28;20204;-79
2023/01/24 11:38:07;;;;;;;16.50;9.20;;;;;4.40;97807.00;;;;8299434;28;20230;-79
2023/01/24 11:42:21;;;;;;;15.13;7.57;;;;;4.40;97793.00;;;;8298967;28;20641;-78
2023/01/24 11:46:39;;;;;;;15.50;8.67;;;;;4.40;97804.00;;;;8299684;28;20696;-78
2023/01/24 11:51:05;;;;;;;14.17;7.43;;;;;4.50;97803.00;;;;8298458;28;20190;-78
2023/01/24 11:55:29;;;;;;;20.43;9.23;;;;;4.40;97791.00;;;;8299608;28;20531;-78
2023/01/24 11:59:58;;;;;;;15.87;7.43;;;;;4.40;97792.00;;;;8298291;28;20202;-79
2023/01/24 12:04:18;;;;;;;13.90;8.00;;;;;4.50;97781.00;;;;8298599;28;20230;-80
2023/01/24 12:08:37;;;;;;;14.07;8.07;;;;;4.50;97782.00;;;;8298797;28;20201;-80
2023/01/24 12:12:45;;;;;;;13.47;6.63;;;;;4.50;97778.00;;;;8298720;28;20680;-80
2023/01/24 12:17:06;;;;;;;15.27;7.30;;;;;4.40;97789.00;;;;8299822;28;20206;-80
2023/01/24 12:21:25;;;;;;;14.20;8.17;;;;;4.30;97791.00;;;;8298101;28;20329;-79
2023/01/24 12:25:38;;;;;;;12.53;6.33;;;;;4.30;97781.00;;;;8298458;28;20196;-79
2023/01/24 12:29:49;;;;;;;11.80;7.03;;;;;4.20;97773.00;;;;8298317;28;20197;-79
2023/01/24 12:34:00;;;;;;;14.27;7.13;;;;;4.20;97781.00;;;;8298220;28;20237;-78
2023/01/24 12:38:16;;;;;;;13.70;8.10;;;;;4.10;97773.00;;;;8298629;28;20205;-78
2023/01/24 12:42:28;;;;;;;19.97;8.50;;;;;4.10;97770.00;;;;8298448;28;20229;-77
2023/01/24 12:46:36;;;;;;;14.27;7.90;;;;;4.10;97766.00;;;;8297960;28;20208;-77
2023/01/24 12:50:44;;;;;;;15.80;8.30;;;;;4.10;97765.00;;;;8297572;28;20203;-79
2023/01/24 12:54:54;;;;;;;15.03;8.77;;;;;4.10;97770.00;;;;8303237;28;20192;-79
2023/01/24 12:58:59;;;;;;;12.27;7.03;;;;;4.10;97766.00;;;;8304611;28;20631;-80
2023/01/24 13:03:34;;;;;;;10.33;5.20;;;;;4.00;97770.00;;;;8302967;28;20230;-80
2023/01/24 13:07:49;;;;;;;10.97;6.53;;;;;4.00;97774.00;;;;8305169;28;20288;-80
2023/01/24 13:11:56;;;;;;;12.00;7.90;;;;;4.10;97779.00;;;;8303836;28;20194;-80
2023/01/24 13:16:26;;;;;;;12.80;7.13;;;;;4.10;97773.00;;;;8302960;28;20238;-80
2023/01/24 13:20:48;;;;;;;16.37;8.97;;;;;4.10;97771.00;;;;8303803;28;20284;-80
2023/01/24 13:25:02;;;;;;;12.63;6.63;;;;;4.10;97776.00;;;;8304313;28;20654;-80
2023/01/24 13:29:23;;;;;;;16.33;8.80;;;;;4.10;97780.00;;;;8303361;28;20239;-81
2023/01/24 13:33:33;;;;;;;14.50;7.07;;;;;4.10;97773.00;;;;8302962;28;20195;-81
2023/01/24 13:37:37;;;;;;;13.27;8.53;;;;;4.10;97774.00;;;;8302208;28;20198;-81
2023/01/24 13:41:42;;;;;;;16.93;9.00;;;;;4.20;97769.00;;;;8301881;28;20279;-82
2023/01/24 13:45:50;;;;;;;11.60;5.87;;;;;4.10;97771.00;;;;8303129;28;20599;-83
2023/01/24 13:50:17;;;;;;;11.73;6.80;;;;;4.10;97772.00;;;;8302222;28;20190;-82
2023/01/24 13:54:36;;;;;;;15.20;7.77;;;;;4.00;97772.00;;;;8302284;28;20663;-81
2023/01/24 13:58:52;;;;;;;15.53;7.93;;;;;4.00;97781.00;;;;8301572;28;20199;-82
2023/01/24 14:03:08;;;;;;;18.80;7.87;;;;;3.90;97782.00;;;;8301488;28;20229;-82
2023/01/24 14:07:28;;;;;;;18.93;9.77;;;;;3.90;97784.00;;;;8301340;28;20212;-81
2023/01/24 14:11:57;;;;;;;27.57;11.90;;;;;3.90;97786.00;;;;8302733;28;20608;-82
2023/01/24 14:16:03;;;;;;;32.47;11.30;;;;;4.00;97783.00;;;;8297380;28;20202;-81
2023/01/24 14:20:21;;;;;;;15.37;8.20;;;;;3.90;97788.00;;;;8302106;28;20600;-83
2023/01/24 14:24:28;;;;;;;16.50;9.53;;;;;3.90;97787.00;;;;8300972;28;20283;-85
2023/01/24 14:28:39;;;;;;;18.47;10.07;;;;;3.90;97793.00;;;;8301755;28;20305;-85
2023/01/24 14:32:51;;;;;;;15.20;8.93;;;;;3.90;97794.00;;;;8301046;28;20591;-85
2023/01/24 14:37:08;;;;;;;19.80;9.13;;;;;3.80;97787.00;;;;8300447;28;20201;-83
2023/01/24 14:41:22;;;;;;;19.07;9.87;;;;;3.70;97795.00;;;;8301244;28;20313;-83
2023/01/24 14:45:31;;;;;;;19.80;10.37;;;;;3.70;97794.00;;;;8298603;28;20186;-83
2023/01/24 14:49:35;;;;;;;20.37;10.53;;;;;3.70;97804.00;;;;8300946;28;20547;-83
2023/01/24 14:53:40;;;;;;;17.03;9.07;;;;;3.70;97812.00;;;;8300416;28;20197;-82
2023/01/24 14:57:48;;;;;;;17.67;11.07;;;;;3.70;97801.00;;;;8299744;28;20248;-82
2023/01/24 15:01:54;;;;;;;15.50;8.57;;;;;3.60;97807.00;;;;8300044;28;20567;-82
2023/01/24 15:06:02;;;;;;;16.00;8.67;;;;;3.60;97808.00;;;;8299876;28;20208;-82
2023/01/24 15:10:17;;;;;;;17.57;9.20;;;;;3.60;97814.00;;;;8299083;28;20197;-82
2023/01/24 15:14:24;;;;;;;17.90;9.33;;;;;3.60;97814.00;;;;8299390;28;20205;-82
2023/01/24 15:18:44;;;;;;;19.40;9.00;;;;;3.50;97813.00;;;;8300088;28;20649;-82
2023/01/24 15:22:51;;;;;;;16.90;8.80;;;;;3.50;97810.00;;;;8298657;28;20570;-82
2023/01/24 15:26:55;;;;;;;18.70;8.67;;;;;3.50;97809.00;;;;8298301;28;20257;-82
2023/01/24 15:31:01;;;;;;;22.23;10.90;;;;;3.50;97812.00;;;;8294925;28;20201;-80
2023/01/24 15:35:27;;;;;;;23.83;10.43;;;;;3.40;97816.00;;;;8299255;28;20277;-82
2023/01/24 15:39:33;;;;;;;22.07;9.60;;;;;3.40;97815.00;;;;8296897;28;20203;-79
2023/01/24 15:43:48;;;;;;;24.80;9.50;;;;;3.40;97824.00;;;;8297871;28;20276;-80
2023/01/24 15:52:24;;;;;;;19.80;9.93;;;;;3.40;97831.00;;;;8426055;27;20570;-82
2023/01/24 15:56:29;;;;;;;21.27;11.03;;;;;3.40;97828.00;;;;8425140;28;20568;-82
2023/01/24 16:00:39;;;;;;;13.17;7.40;;;;;3.40;97824.00;;;;8425873;28;20325;-82
2023/01/24 16:04:47;;;;;;;14.07;7.43;;;;;3.30;97824.00;;;;8425730;28;20667;-82
2023/01/24 16:08:54;;;;;;;21.57;10.00;;;;;3.30;97821.00;;;;8426123;28;20292;-82
2023/01/24 16:12:57;;;;;;;21.27;10.47;;;;;3.30;97825.00;;;;8424397;28;20198;-82
2023/01/24 16:17:05;;;;;;;20.70;9.57;;;;;3.20;97825.00;;;;8424931;28;20197;-82
2023/01/24 16:21:09;;;;;;;14.13;7.33;;;;;3.20;97830.00;;;;8425827;28;20207;-82
2023/01/24 16:25:16;;;;;;;17.50;9.37;;;;;3.20;97829.00;;;;8424771;28;20227;-81
2023/01/24 16:29:23;;;;;;;18.90;8.87;;;;;3.10;97830.00;;;;8425130;28;20226;-82
2023/01/24 16:33:26;;;;;;;19.50;10.20;;;;;3.20;97839.00;;;;8424559;28;20257;-82
2023/01/24 16:37:30;;;;;;;18.63;10.00;;;;;3.10;97843.00;;;;8425693;28;20201;-83
2023/01/24 16:41:34;;;;;;;17.27;8.43;;;;;3.10;97840.00;;;;8421916;28;20239;-82
2023/01/24 16:45:39;;;;;;;20.10;9.43;;;;;3.10;97851.00;;;;8424742;28;20607;-82
2023/01/24 16:49:42;;;;;;;20.80;10.27;;;;;3.20;97844.00;;;;8424257;28;20222;-81
2023/01/24 16:53:45;;;;;;;18.73;9.33;;;;;3.10;97840.00;;;;8423580;28;20206;-81
2023/01/24 16:57:51;;;;;;;19.83;10.13;;;;;3.10;97853.00;;;;8424663;28;20231;-81
2023/01/24 17:01:54;;;;;;;16.03;8.70;;;;;3.10;97836.00;;;;8411132;28;20223;-81
2023/01/24 17:05:57;;;;;;;14.40;6.97;;;;;3.00;97833.00;;;;8401894;28;20631;-81
2023/01/24 17:10:04;;;;;;;12.53;7.33;;;;;3.00;97836.00;;;;8400786;28;20224;-81
2023/01/24 17:14:10;;;;;;;18.57;9.13;;;;;3.00;97837.00;;;;8400666;28;20600;-81
2023/01/24 17:18:16;;;;;;;13.63;8.50;;;;;2.90;97843.00;;;;8401313;28;20238;-81
2023/01/24 17:22:19;;;;;;;20.97;9.07;;;;;2.90;97844.00;;;;8397332;28;20194;-81
2023/01/24 17:26:26;;;;;;;17.37;9.40;;;;;2.90;97844.00;;;;8400245;28;20187;-81
2023/01/24 17:30:33;;;;;;;20.67;10.00;;;;;2.90;97861.00;;;;8400301;28;20257;-81
2023/01/24 17:34:36;;;;;;;19.33;10.73;;;;;2.90;97856.00;;;;8399064;28;20198;-81
2023/01/24 17:38:39;;;;;;;20.97;10.90;;;;;2.90;97869.00;;;;8401680;28;20268;-81
2023/01/24 17:42:44;;;;;;;23.50;11.47;;;;;2.90;97858.00;;;;8401341;28;20192;-80
2023/01/24 17:46:50;;;;;;;19.47;9.33;;;;;2.90;97862.00;;;;8400429;28;20286;-80
2023/01/24 17:51:14;;;;;;;16.27;8.63;;;;;2.90;97861.00;;;;8400604;28;20561;-80
2023/01/24 17:55:18;;;;;;;19.73;9.50;;;;;2.80;97871.00;;;;8400473;28;20195;-79
2023/01/24 17:59:21;;;;;;;24.50;10.47;;;;;2.70;97870.00;;;;8400298;28;20627;-81
2023/01/24 18:03:31;;;;;;;16.30;7.60;;;;;2.70;97878.00;;;;8400360;28;20219;-80
2023/01/24 18:07:34;;;;;;;17.83;9.13;;;;;2.70;97876.00;;;;8399012;28;20719;-79
2023/01/24 18:11:39;;;;;;;21.23;11.27;;;;;2.60;97880.00;;;;8398132;28;20217;-81
2023/01/24 18:15:43;;;;;;;24.73;11.73;;;;;2.70;97880.00;;;;8392013;28;20207;-79
2023/01/24 18:19:47;;;;;;;18.30;8.63;;;;;2.70;97882.00;;;;8396420;28;20597;-80
2023/01/24 18:23:53;;;;;;;20.87;9.53;;;;;2.70;97874.00;;;;8399283;28;20582;-79
2023/01/24 18:27:56;;;;;;;24.53;11.60;;;;;2.70;97877.00;;;;8398891;28;20579;-77
2023/01/24 18:32:00;;;;;;;18.23;9.10;;;;;2.70;97876.00;;;;8399037;28;20230;-77
2023/01/24 18:36:08;;;;;;;28.33;12.87;;;;;2.70;97873.00;;;;8399178;28;20230;-77
2023/01/24 18:40:14;;;;;;;19.30;9.60;;;;;2.70;97873.00;;;;8398968;28;20248;-77
2023/01/24 18:44:17;;;;;;;21.37;9.57;;;;;2.70;97871.00;;;;8398948;28;20633;-77
2023/01/24 18:48:22;;;;;;;23.73;10.13;;;;;2.70;97865.00;;;;8399267;28;20681;-77
2023/01/24 18:52:30;;;;;;;24.30;10.77;;;;;2.70;97874.00;;;;8398669;28;20297;-77
2023/01/24 18:56:33;;;;;;;23.37;11.90;;;;;2.80;97862.00;;;;8399247;28;20194;-77
2023/01/24 19:00:37;;;;;;;23.77;10.83;;;;;2.80;97871.00;;;;8397782;28;20196;-77
2023/01/24 19:04:40;;;;;;;25.60;11.33;;;;;2.80;97864.00;;;;8398902;28;20219;-77
2023/01/24 19:08:48;;;;;;;20.43;9.93;;;;;2.80;97858.00;;;;8398203;28;20202;-77
2023/01/24 19:13:04;;;;;;;27.07;11.23;;;;;2.80;97856.00;;;;8395274;28;20210;-77
2023/01/24 19:17:11;;;;;;;26.63;12.40;;;;;2.80;97863.00;;;;8397769;28;20203;-77
2023/01/24 19:21:14;;;;;;;27.90;12.37;;;;;2.80;97853.00;;;;8397460;28;20320;-77
2023/01/24 19:25:21;;;;;;;29.60;13.00;;;;;2.80;97862.00;;;;8396240;28;20285;-78
2023/01/24 19:29:30;;;;;;;26.87;12.33;;;;;2.80;97858.00;;;;8396483;28;20195;-78
2023/01/24 19:33:35;;;;;;;23.17;11.23;;;;;2.80;97861.00;;;;8398510;28;20668;-78
2023/01/24 19:37:41;;;;;;;25.37;11.73;;;;;2.90;97874.00;;;;8397623;28;20188;-78
2023/01/24 19:41:48;;;;;;;29.47;10.93;;;;;2.90;97868.00;;;;8397456;28;20191;-77
2023/01/24 19:45:52;;;;;;;29.93;12.67;;;;;2.90;97872.00;;;;8379499;28;20280;-78
2023/01/24 19:50:11;;;;;;;27.27;12.40;;;;;2.90;97860.00;;;;8398551;28;20225;-78
2023/01/24 19:54:14;;;;;;;26.33;12.30;;;;;2.90;97864.00;;;;8397947;28;20622;-78
2023/01/24 19:58:21;;;;;;;22.43;10.40;;;;;2.80;97854.00;;;;8397573;28;20635;-78
2023/01/24 20:02:27;;;;;;;28.03;12.70;;;;;2.80;97861.00;;;;8395044;28;20366;-78
2023/01/24 20:06:34;;;;;;;28.03;12.77;;;;;2.80;97862.00;;;;8396157;28;20581;-78
2023/01/24 20:10:39;;;;;;;29.63;12.77;;;;;2.80;97858.00;;;;8397165;28;20228;-78
2023/01/24 20:14:43;;;;;;;26.43;11.13;;;;;2.80;97865.00;;;;8395481;28;20194;-83
2023/01/24 20:18:49;;;;;;;26.93;12.53;;;;;2.90;97876.00;;;;8393003;28;20204;-82
2023/01/24 20:22:55;;;;;;;35.63;13.73;;;;;2.90;97880.00;;;;8396017;28;20198;-83
2023/01/24 20:26:58;;;;;;;32.70;14.40;;;;;2.90;97885.00;;;;8396697;28;20248;-83
2023/01/24 20:31:06;;;;;;;30.30;11.87;;;;;2.90;97881.00;;;;8396303;28;20221;-83
2023/01/24 20:35:13;;;;;;;33.67;12.87;;;;;2.80;97888.00;;;;8396204;28;20335;-83
2023/01/24 20:39:16;;;;;;;29.00;13.17;;;;;2.80;97892.00;;;;8403134;28;20183;-84
2023/01/24 20:43:20;;;;;;;33.53;13.77;;;;;2.80;97888.00;;;;8398402;28;20195;-82
2023/01/24 20:47:28;;;;;;;33.63;14.27;;;;;2.80;97891.00;;;;8401409;28;20194;-83
2023/01/24 20:51:32;;;;;;;32.53;13.70;;;;;2.80;97898.00;;;;8401558;28;20573;-82
2023/01/24 20:55:38;;;;;;;30.00;12.97;;;;;2.80;97893.00;;;;8401049;28;20203;-83
2023/01/24 20:59:41;;;;;;;36.23;15.33;;;;;2.90;97896.00;;;;8402753;28;20536;-83
2023/01/24 21:03:46;;;;;;;32.77;14.67;;;;;2.80;97891.00;;;;8400814;28;20266;-89
2023/01/24 21:07:49;;;;;;;38.17;15.80;;;;;2.80;97878.00;;;;8401439;28;20251;-90
2023/01/24 21:11:53;;;;;;;30.93;13.63;;;;;2.80;97889.00;;;;8400812;28;20253;-90
2023/01/24 21:15:57;;;;;;;40.27;16.33;;;;;2.80;97884.00;;;;8402291;28;20632;-89
2023/01/24 21:20:02;;;;;;;41.40;16.03;;;;;2.90;97889.00;;;;8400273;28;20286;-90
2023/01/24 21:24:14;;;;;;;41.93;16.27;;;;;2.90;97889.00;;;;8401488;28;20575;-90